Time;durP1;ratioP1;P1;durP2;ratioP2;P2;SDS_P1;SDS_P2;PMS_P1;PMS_P2;Temp;Humidity;BMP_temperature;BMP_pressure;BME280_temperature;BME280_humidity;BME280_pressure;Samples;Min_cycle;Max_cycle;Signal;HPM_P1;HPM_P2
2022/10/25 00:01:03;;;;;;;7.18;4.97;;;;;;;;;;5030503;28;20033;-60
2022/10/25 00:03:28;;;;;;;17.40;7.87;;;;;;;;;;5029540;28;20030;-61
2022/10/25 00:05:53;;;;;;;14.43;6.57;;;;;;;;;;5031179;28;20443;-61
2022/10/25 00:08:18;;;;;;;11.00;5.38;;;;;;;;;;5029248;28;20128;-60
2022/10/25 00:10:44;;;;;;;15.93;7.72;;;;;;;;;;5030774;28;20022;-60
2022/10/25 00:13:09;;;;;;;13.80;6.03;;;;;;;;;;5029378;28;20044;-60
2022/10/25 00:15:34;;;;;;;14.90;6.85;;;;;;;;;;5030574;28;20461;-60
2022/10/25 00:17:59;;;;;;;8.27;5.30;;;;;;;;;;5029837;28;20041;-60
2022/10/25 00:20:24;;;;;;;6.70;4.60;;;;;;;;;;5031266;28;20091;-61
2022/10/25 00:22:49;;;;;;;12.93;5.15;;;;;;;;;;5029024;28;20551;-61
2022/10/25 00:25:15;;;;;;;9.05;5.40;;;;;;;;;;5031133;28;20029;-61
2022/10/25 00:27:40;;;;;;;12.20;5.63;;;;;;;;;;5029008;28;20405;-60
2022/10/25 00:30:06;;;;;;;16.73;5.60;;;;;;;;;;5030922;28;20060;-61
2022/10/25 00:32:34;;;;;;;18.15;4.72;;;;;;;;;;5029309;28;20620;-60
2022/10/25 00:34:59;;;;;;;12.18;4.70;;;;;;;;;;5031078;28;20054;-61
2022/10/25 00:37:25;;;;;;;18.33;6.15;;;;;;;;;;5028953;28;20478;-61
2022/10/25 00:39:50;;;;;;;10.90;5.32;;;;;;;;;;5030767;28;20033;-61
2022/10/25 00:42:20;;;;;;;7.05;4.95;;;;;;;;;;5029556;28;20122;-61
2022/10/25 00:44:48;;;;;;;16.77;7.47;;;;;;;;;;5030521;28;20026;-61
2022/10/25 00:47:13;;;;;;;;;;;;;;;;;;5030293;28;20042;-60
2022/10/25 00:49:40;;;;;;;13.65;6.25;;;;;;;;;;5030640;28;19955;-61
2022/10/25 00:52:06;;;;;;;14.15;6.22;;;;;;;;;;5028709;28;20492;-61
2022/10/25 00:54:36;;;;;;;11.52;6.28;;;;;;;;;;5030289;28;20033;-60
2022/10/25 00:57:04;;;;;;;8.50;6.15;;;;;;;;;;5029286;28;20033;-61
2022/10/25 00:59:30;;;;;;;17.70;8.23;;;;;;;;;;5030332;28;20056;-61
2022/10/25 01:01:55;;;;;;;19.95;6.47;;;;;;;;;;5028956;28;20826;-61
2022/10/25 01:04:23;;;;;;;8.05;6.18;;;;;;;;;;5030475;28;20053;-61
2022/10/25 01:06:49;;;;;;;15.18;6.25;;;;;;;;;;5028464;28;20493;-61
2022/10/25 01:09:19;;;;;;;16.83;6.53;;;;;;;;;;5030479;28;20022;-60
2022/10/25 01:11:44;;;;;;;15.15;6.50;;;;;;;;;;5028854;28;20577;-61
2022/10/25 01:14:11;;;;;;;15.32;7.22;;;;;;;;;;5032597;28;20123;-61
2022/10/25 01:16:42;;;;;;;10.02;6.47;;;;;;;;;;5032847;28;20048;-61
2022/10/25 01:19:29;;;;;;;14.77;7.63;;;;;;;;;;5034438;28;20025;-61
2022/10/25 01:22:13;;;;;;;14.90;6.97;;;;;;;;;;5032289;28;20048;-61
2022/10/25 01:24:56;;;;;;;20.58;7.15;;;;;;;;;;5033573;28;20477;-61
2022/10/25 01:27:31;;;;;;;12.68;6.30;;;;;;;;;;5032552;28;20042;-61
2022/10/25 01:30:02;;;;;;;15.57;6.97;;;;;;;;;;5019600;28;20386;-60
2022/10/25 01:32:30;;;;;;;22.23;8.02;;;;;;;;;;5032439;28;20144;-61
2022/10/25 01:34:58;;;;;;;20.20;7.00;;;;;;;;;;5033801;28;20045;-61
2022/10/25 01:37:33;;;;;;;11.25;7.68;;;;;;;;;;5032502;28;20042;-60
2022/10/25 01:39:58;;;;;;;17.25;6.82;;;;;;;;;;5034050;28;20024;-61
2022/10/25 01:42:34;;;;;;;13.95;7.53;;;;;;;;;;5031602;28;20064;-61
2022/10/25 01:45:18;;;;;;;10.52;6.47;;;;;;;;;;5034007;28;20473;-61
2022/10/25 01:47:47;;;;;;;13.20;6.45;;;;;;;;;;5031910;28;20599;-61
2022/10/25 01:50:12;;;;;;;;;;;;;;;;;;5033983;28;20045;-60
2022/10/25 01:52:37;;;;;;;12.57;6.47;;;;;;;;;;5031835;28;19948;-61
2022/10/25 01:55:04;;;;;;;16.10;7.07;;;;;;;;;;5033718;28;20028;-61
2022/10/25 01:57:30;;;;;;;11.68;6.65;;;;;;;;;;5031722;28;20038;-61
2022/10/25 02:00:06;;;;;;;14.20;6.70;;;;;;;;;;5033647;28;20025;-61
2022/10/25 02:02:39;;;;;;;17.98;8.60;;;;;;;;;;5031623;28;20091;-61
2022/10/25 02:05:13;;;;;;;19.95;7.68;;;;;;;;;;5033181;28;20117;-61
2022/10/25 02:07:45;;;;;;;16.25;8.45;;;;;;;;;;5031632;28;20040;-62
2022/10/25 02:10:20;;;;;;;18.55;8.05;;;;;;;;;;5033514;28;20143;-62
2022/10/25 02:12:57;;;;;;;7.85;6.55;;;;;;;;;;5031250;28;20053;-61
2022/10/25 02:15:37;;;;;;;16.30;6.75;;;;;;;;;;5033342;28;20125;-62
2022/10/25 02:18:05;;;;;;;15.82;7.22;;;;;;;;;;5031930;28;20125;-62
2022/10/25 02:20:33;;;;;;;24.92;10.18;;;;;;;;;;5032881;28;20068;-62
2022/10/25 02:22:59;;;;;;;16.25;8.73;;;;;;;;;;5031060;28;20400;-61
2022/10/25 02:25:25;;;;;;;14.70;7.68;;;;;;;;;;5032724;28;20028;-61
2022/10/25 02:27:52;;;;;;;15.52;6.30;;;;;;;;;;5031391;28;20037;-62
2022/10/25 02:30:17;;;;;;;18.20;8.00;;;;;;;;;;5032748;28;20111;-61
2022/10/25 02:32:42;;;;;;;22.27;7.97;;;;;;;;;;5031200;28;20453;-61
2022/10/25 02:35:14;;;;;;;18.87;9.83;;;;;;;;;;5032585;28;20037;-61
2022/10/25 02:37:39;;;;;;;12.82;7.03;;;;;;;;;;5030006;28;20811;-62
2022/10/25 02:40:04;;;;;;;18.77;7.63;;;;;;;;;;5032956;28;20025;-62
2022/10/25 02:42:29;;;;;;;11.95;8.13;;;;;;;;;;5030900;28;20071;-62
2022/10/25 02:44:55;;;;;;;20.73;8.27;;;;;;;;;;5032609;28;20018;-62
2022/10/25 02:47:20;;;;;;;16.50;7.75;;;;;;;;;;5030994;28;20458;-62
2022/10/25 02:49:45;;;;;;;11.70;7.67;;;;;;;;;;5032225;28;20025;-61
2022/10/25 02:52:10;;;;;;;13.18;8.13;;;;;;;;;;5031008;28;20116;-62
2022/10/25 02:54:35;;;;;;;13.98;7.75;;;;;;;;;;5032237;28;20017;-62
2022/10/25 02:57:00;;;;;;;14.27;6.57;;;;;;;;;;5030699;28;20045;-62
2022/10/25 02:59:25;;;;;;;15.40;6.68;;;;;;;;;;5032085;28;20111;-62
2022/10/25 03:01:51;;;;;;;17.42;8.85;;;;;;;;;;5031181;28;20393;-62
2022/10/25 03:04:16;;;;;;;22.30;8.90;;;;;;;;;;5032143;28;20029;-63
2022/10/25 03:06:41;;;;;;;14.90;9.10;;;;;;;;;;5030631;28;20033;-61
2022/10/25 03:09:06;;;;;;;24.00;7.67;;;;;;;;;;5032312;28;20385;-61
2022/10/25 03:11:31;;;;;;;16.97;8.47;;;;;;;;;;5030389;28;20033;-62
2022/10/25 03:13:56;;;;;;;15.70;8.05;;;;;;;;;;5032190;28;20099;-62
2022/10/25 03:16:21;;;;;;;10.87;7.23;;;;;;;;;;5030599;28;20021;-62
2022/10/25 03:18:47;;;;;;;24.80;9.27;;;;;;;;;;5031623;28;20018;-62
2022/10/25 03:21:12;;;;;;;16.35;7.97;;;;;;;;;;5031916;28;20069;-62
2022/10/25 03:23:37;;;;;;;19.20;8.90;;;;;;;;;;5030415;28;20045;-62
2022/10/25 03:26:02;;;;;;;21.25;8.10;;;;;;;;;;5031528;28;20370;-63
2022/10/25 03:28:28;;;;;;;22.63;7.53;;;;;;;;;;5030011;28;20053;-62
2022/10/25 03:30:54;;;;;;;21.80;8.13;;;;;;;;;;5032113;28;20026;-62
2022/10/25 03:33:19;;;;;;;13.90;7.30;;;;;;;;;;5030156;28;20040;-62
2022/10/25 03:35:44;;;;;;;14.90;7.35;;;;;;;;;;5030693;28;20046;-62
2022/10/25 03:38:10;;;;;;;19.70;7.03;;;;;;;;;;5029895;28;20573;-60
2022/10/25 03:40:35;;;;;;;17.25;7.57;;;;;;;;;;5030987;28;20032;-61
2022/10/25 03:43:00;;;;;;;19.90;7.40;;;;;;;;;;5030030;28;20044;-61
2022/10/25 03:45:25;;;;;;;16.33;7.60;;;;;;;;;;5031220;28;20049;-61
2022/10/25 03:47:50;;;;;;;15.40;6.77;;;;;;;;;;5030007;28;20535;-61
2022/10/25 03:50:16;;;;;;;18.83;7.60;;;;;;;;;;5031303;28;20415;-61
2022/10/25 03:52:41;;;;;;;29.95;9.55;;;;;;;;;;5029722;28;20033;-61
2022/10/25 03:55:06;;;;;;;24.65;9.10;;;;;;;;;;5031426;28;20087;-61
2022/10/25 03:57:31;;;;;;;15.48;6.43;;;;;;;;;;5029335;28;20038;-60
2022/10/25 03:59:58;;;;;;;19.20;9.20;;;;;;;;;;5031260;28;20028;-60
2022/10/25 04:02:23;;;;;;;14.13;6.65;;;;;;;;;;5029944;28;20468;-60
2022/10/25 04:04:49;;;;;;;21.20;9.00;;;;;;;;;;5029697;28;20028;-61
2022/10/25 04:07:14;;;;;;;22.45;6.20;;;;;;;;;;5029601;28;20123;-60
2022/10/25 04:09:39;;;;;;;17.17;8.20;;;;;;;;;;5031096;28;20045;-60
2022/10/25 04:12:04;;;;;;;13.68;7.47;;;;;;;;;;5029292;28;20057;-60
2022/10/25 04:14:29;;;;;;;20.30;8.15;;;;;;;;;;5031235;28;20163;-61
2022/10/25 04:16:54;;;;;;;17.30;7.30;;;;;;;;;;5029562;28;20033;-61
2022/10/25 04:19:20;;;;;;;27.10;8.27;;;;;;;;;;5030886;28;20029;-61
2022/10/25 04:21:45;;;;;;;15.98;6.75;;;;;;;;;;5029504;28;20091;-61
2022/10/25 04:24:10;;;;;;;17.37;5.93;;;;;;;;;;5031220;28;20036;-61
2022/10/25 04:26:35;;;;;;;18.43;7.73;;;;;;;;;;5028821;28;20448;-61
2022/10/25 04:29:01;;;;;;;18.27;7.78;;;;;;;;;;5031176;28;20017;-61
2022/10/25 04:31:26;;;;;;;16.48;7.10;;;;;;;;;;5029410;28;20492;-61
2022/10/25 04:33:52;;;;;;;16.98;7.38;;;;;;;;;;5030426;28;20010;-59
2022/10/25 04:36:17;;;;;;;21.65;8.00;;;;;;;;;;5029502;28;20484;-58
2022/10/25 04:38:42;;;;;;;18.47;8.50;;;;;;;;;;5030103;28;20033;-59
2022/10/25 04:41:07;;;;;;;20.02;9.45;;;;;;;;;;5029325;28;20473;-60
2022/10/25 04:43:32;;;;;;;10.48;6.15;;;;;;;;;;5029284;28;20044;-61
2022/10/25 04:45:59;;;;;;;26.63;7.77;;;;;;;;;;5030928;28;20025;-60
2022/10/25 04:48:24;;;;;;;21.48;8.85;;;;;;;;;;5031800;28;21038;-60
2022/10/25 04:50:49;;;;;;;20.35;7.68;;;;;;;;;;5034533;28;20065;-60
2022/10/25 04:53:14;;;;;;;16.92;8.60;;;;;;;;;;5032790;28;20425;-61
2022/10/25 04:55:39;;;;;;;34.90;9.40;;;;;;;;;;5034281;28;20057;-60
2022/10/25 04:58:05;;;;;;;18.07;9.23;;;;;;;;;;5033191;28;20052;-61
2022/10/25 05:00:30;;;;;;;20.63;7.70;;;;;;;;;;5034509;28;20022;-60
2022/10/25 05:02:55;;;;;;;16.50;7.47;;;;;;;;;;5032849;28;20451;-60
2022/10/25 05:05:21;;;;;;;17.58;7.78;;;;;;;;;;5034580;28;20030;-60
2022/10/25 05:07:46;;;;;;;25.00;8.40;;;;;;;;;;5032443;28;20532;-60
2022/10/25 05:10:11;;;;;;;16.02;7.05;;;;;;;;;;5034052;28;20032;-60
2022/10/25 05:12:37;;;;;;;18.80;7.65;;;;;;;;;;5032760;28;20029;-60
2022/10/25 05:15:03;;;;;;;17.25;7.35;;;;;;;;;;5032497;28;20393;-60
2022/10/25 05:17:28;;;;;;;16.02;5.57;;;;;;;;;;5031655;28;20037;-61
2022/10/25 05:19:53;;;;;;;17.77;8.27;;;;;;;;;;5034168;28;20055;-61
2022/10/25 05:22:18;;;;;;;19.90;7.87;;;;;;;;;;5032921;28;20378;-59
2022/10/25 05:24:43;;;;;;;20.00;9.15;;;;;;;;;;5033836;28;20029;-59
2022/10/25 05:27:08;;;;;;;21.40;8.83;;;;;;;;;;5032930;28;20496;-59
2022/10/25 05:29:34;;;;;;;26.23;9.70;;;;;;;;;;5033918;28;21060;-59
2022/10/25 05:31:59;;;;;;;18.73;9.65;;;;;;;;;;5032608;28;20034;-59
2022/10/25 05:34:24;;;;;;;18.67;9.10;;;;;;;;;;5033808;28;20049;-59
2022/10/25 05:36:50;;;;;;;24.10;9.23;;;;;;;;;;5032514;28;20045;-59
2022/10/25 05:39:15;;;;;;;22.35;9.43;;;;;;;;;;5033776;28;20028;-58
2022/10/25 05:41:40;;;;;;;22.52;9.50;;;;;;;;;;5032375;28;20034;-59
2022/10/25 05:44:05;;;;;;;17.87;8.60;;;;;;;;;;5034009;28;20047;-59
2022/10/25 05:46:31;;;;;;;23.10;9.47;;;;;;;;;;5031957;28;20494;-59
2022/10/25 05:48:57;;;;;;;23.38;11.23;;;;;;;;;;5033449;28;20502;-60
2022/10/25 05:51:24;;;;;;;16.67;9.07;;;;;;;;;;5032341;28;20021;-60
2022/10/25 05:53:51;;;;;;;20.02;9.05;;;;;;;;;;5033822;28;20017;-59
2022/10/25 05:56:16;;;;;;;16.45;10.25;;;;;;;;;;5033451;28;20018;-59
2022/10/25 05:58:42;;;;;;;30.15;11.43;;;;;;;;;;5031544;28;20049;-59
2022/10/25 06:01:08;;;;;;;24.27;9.73;;;;;;;;;;5033627;28;20604;-58
2022/10/25 06:03:34;;;;;;;21.08;10.07;;;;;;;;;;5031594;28;20090;-59
2022/10/25 06:06:00;;;;;;;21.98;11.48;;;;;;;;;;5033657;28;20112;-59
2022/10/25 06:08:26;;;;;;;21.80;10.77;;;;;;;;;;5031801;28;20512;-59
2022/10/25 06:10:51;;;;;;;16.83;11.45;;;;;;;;;;5033370;28;20175;-59
2022/10/25 06:13:16;;;;;;;19.98;10.75;;;;;;;;;;5031853;28;20044;-59
2022/10/25 06:15:41;;;;;;;18.55;11.80;;;;;;;;;;5033282;28;20128;-59
2022/10/25 06:18:06;;;;;;;18.53;9.90;;;;;;;;;;5031600;28;20057;-59
2022/10/25 06:20:31;;;;;;;30.47;14.30;;;;;;;;;;5033142;28;20771;-59
2022/10/25 06:22:57;;;;;;;17.90;12.43;;;;;;;;;;5031833;28;20037;-59
2022/10/25 06:25:22;;;;;;;22.83;12.80;;;;;;;;;;5032813;28;20075;-59
2022/10/25 06:27:47;;;;;;;31.60;11.70;;;;;;;;;;5031486;28;20080;-59
2022/10/25 06:30:12;;;;;;;24.30;13.07;;;;;;;;;;5033139;28;20017;-59
2022/10/25 06:32:37;;;;;;;19.17;10.97;;;;;;;;;;5031109;28;20095;-59
2022/10/25 06:35:03;;;;;;;28.60;14.13;;;;;;;;;;5032852;28;20045;-59
2022/10/25 06:37:28;;;;;;;23.00;11.57;;;;;;;;;;5031365;28;20079;-59
2022/10/25 06:39:53;;;;;;;22.48;13.05;;;;;;;;;;5032543;28;20113;-59
2022/10/25 06:42:18;;;;;;;29.33;14.55;;;;;;;;;;5031621;28;20529;-59
2022/10/25 06:44:44;;;;;;;24.63;12.85;;;;;;;;;;5032644;28;20086;-59
2022/10/25 06:47:09;;;;;;;20.67;12.80;;;;;;;;;;5031058;28;20035;-59
2022/10/25 06:49:34;;;;;;;18.92;13.07;;;;;;;;;;5032123;28;20366;-59
2022/10/25 06:51:59;;;;;;;20.47;14.00;;;;;;;;;;5030544;28;20064;-59
2022/10/25 06:54:25;;;;;;;21.55;12.80;;;;;;;;;;5032140;28;20048;-59
2022/10/25 06:56:50;;;;;;;17.70;11.85;;;;;;;;;;5031492;28;20026;-58
2022/10/25 06:59:16;;;;;;;19.33;12.63;;;;;;;;;;5032548;28;20040;-59
2022/10/25 07:01:41;;;;;;;22.08;11.38;;;;;;;;;;5030675;28;20116;-59
2022/10/25 07:04:07;;;;;;;25.88;14.55;;;;;;;;;;5032483;28;20144;-58
2022/10/25 07:06:36;;;;;;;20.52;13.40;;;;;;;;;;5027623;28;20018;-59
2022/10/25 07:09:01;;;;;;;19.88;13.15;;;;;;;;;;5050317;28;20107;-58
2022/10/25 07:11:28;;;;;;;23.25;13.13;;;;;;;;;;5049842;28;20060;-59
2022/10/25 07:13:54;;;;;;;21.77;13.00;;;;;;;;;;5033650;28;20006;-59
2022/10/25 07:16:19;;;;;;;19.10;13.98;;;;;;;;;;5030402;28;20028;-58
2022/10/25 07:18:45;;;;;;;24.60;14.30;;;;;;;;;;5032094;28;20039;-59
2022/10/25 07:21:11;;;;;;;25.85;15.38;;;;;;;;;;5032040;28;20101;-59
2022/10/25 07:23:41;;;;;;;22.77;14.23;;;;;;;;;;5030000;28;20033;-59
2022/10/25 07:26:07;;;;;;;16.15;14.32;;;;;;;;;;5032241;28;20028;-59
2022/10/25 07:28:32;;;;;;;19.55;13.55;;;;;;;;;;5030099;28;20037;-59
2022/10/25 07:30:57;;;;;;;13.70;12.07;;;;;;;;;;5031548;28;20024;-59
2022/10/25 07:33:22;;;;;;;17.85;12.15;;;;;;;;;;5030240;28;20112;-59
2022/10/25 07:35:48;;;;;;;20.45;12.63;;;;;;;;;;5031549;28;20037;-59
2022/10/25 07:38:14;;;;;;;19.75;12.48;;;;;;;;;;5029956;28;20644;-59
2022/10/25 07:40:39;;;;;;;14.93;11.50;;;;;;;;;;5031579;28;20096;-59
2022/10/25 07:43:04;;;;;;;16.95;10.77;;;;;;;;;;5029742;28;20033;-60
2022/10/25 07:45:30;;;;;;;17.08;10.30;;;;;;;;;;5030465;28;20029;-59
2022/10/25 07:47:55;;;;;;;17.50;12.70;;;;;;;;;;5029842;28;20049;-59
2022/10/25 07:50:20;;;;;;;23.05;12.50;;;;;;;;;;5030965;28;20499;-59
2022/10/25 07:52:45;;;;;;;16.05;11.75;;;;;;;;;;5029442;28;20119;-59
2022/10/25 07:55:11;;;;;;;15.77;11.70;;;;;;;;;;5030786;28;20036;-59
2022/10/25 07:57:36;;;;;;;17.63;11.20;;;;;;;;;;5029468;28;20041;-59
2022/10/25 08:00:01;;;;;;;19.17;11.73;;;;;;;;;;5030835;28;20033;-59
2022/10/25 08:02:26;;;;;;;28.27;13.07;;;;;;;;;;5029299;28;20092;-59
2022/10/25 08:04:51;;;;;;;14.50;9.45;;;;;;;;;;5031598;28;20104;-59
2022/10/25 08:07:17;;;;;;;16.15;10.70;;;;;;;;;;5029091;28;20037;-59
2022/10/25 08:09:42;;;;;;;15.40;10.63;;;;;;;;;;5031166;28;20053;-59
2022/10/25 08:12:07;;;;;;;22.40;11.03;;;;;;;;;;5029477;28;20033;-59
2022/10/25 08:14:32;;;;;;;16.48;10.85;;;;;;;;;;5030735;28;20097;-60
2022/10/25 08:16:57;;;;;;;22.58;11.15;;;;;;;;;;5029475;28;20045;-59
2022/10/25 08:19:22;;;;;;;16.13;11.25;;;;;;;;;;5031307;28;20469;-58
2022/10/25 08:21:47;;;;;;;25.20;12.82;;;;;;;;;;5028925;28;20061;-59
2022/10/25 08:24:13;;;;;;;13.30;10.90;;;;;;;;;;5030797;28;20022;-59
2022/10/25 08:26:38;;;;;;;19.83;12.70;;;;;;;;;;5029342;28;20395;-59
2022/10/25 08:29:03;;;;;;;18.17;11.32;;;;;;;;;;5030627;28;20032;-58
2022/10/25 08:31:28;;;;;;;21.67;10.65;;;;;;;;;;5028522;28;20072;-58
2022/10/25 08:33:53;;;;;;;14.63;10.47;;;;;;;;;;5030702;28;20472;-58
2022/10/25 08:36:19;;;;;;;17.98;9.20;;;;;;;;;;5029386;28;20046;-58
2022/10/25 08:38:45;;;;;;;14.75;10.32;;;;;;;;;;5029908;28;20033;-59
2022/10/25 08:41:17;;;;;;;17.85;8.95;;;;;;;;;;5030985;28;20381;-59
2022/10/25 08:43:49;;;;;;;16.00;11.77;;;;;;;;;;5029255;28;20046;-58
2022/10/25 08:46:22;;;;;;;11.05;8.70;;;;;;;;;;5030412;28;20037;-59
2022/10/25 08:48:51;;;;;;;13.20;9.82;;;;;;;;;;5028446;28;20136;-59
2022/10/25 08:51:27;;;;;;;16.10;11.07;;;;;;;;;;5030340;28;20056;-59
2022/10/25 08:53:55;;;;;;;17.25;10.20;;;;;;;;;;5029170;28;20034;-59
2022/10/25 08:56:21;;;;;;;19.48;11.25;;;;;;;;;;5029410;28;20014;-59
2022/10/25 08:58:53;;;;;;;12.23;9.30;;;;;;;;;;5029834;28;20032;-59
2022/10/25 09:01:30;;;;;;;11.27;8.68;;;;;;;;;;5028745;28;20041;-56
2022/10/25 09:03:57;;;;;;;18.88;10.35;;;;;;;;;;5030645;28;20074;-59
2022/10/25 09:06:28;;;;;;;13.70;9.27;;;;;;;;;;5029096;28;20021;-59
2022/10/25 09:09:06;;;;;;;19.50;10.10;;;;;;;;;;5030256;28;20037;-59
2022/10/25 09:11:32;;;;;;;21.48;9.65;;;;;;;;;;5028362;28;20476;-59
2022/10/25 09:14:04;;;;;;;16.80;8.20;;;;;;;;;;5030570;28;20021;-59
2022/10/25 09:17:03;;;;;;;22.05;9.60;;;;;;;;;;5028542;28;20443;-59
2022/10/25 09:19:28;;;;;;;15.93;10.63;;;;;;;;;;5015719;28;20033;-59
2022/10/25 09:21:58;;;;;;;23.05;12.75;;;;;;;;;;5042871;28;20030;-59
2022/10/25 09:24:43;;;;;;;17.73;9.63;;;;;;;;;;5030450;28;20109;-59
2022/10/25 09:27:13;;;;;;;17.63;9.60;;;;;;;;;;5028500;28;20082;-59
2022/10/25 09:29:42;;;;;;;12.23;8.38;;;;;;;;;;5029834;28;20022;-59
2022/10/25 09:32:17;;;;;;;20.08;8.88;;;;;;;;;;5029187;28;20048;-59
2022/10/25 09:34:43;;;;;;;14.85;10.38;;;;;;;;;;5031329;28;20384;-58
2022/10/25 09:37:37;;;;;;;12.20;7.70;;;;;;;;;;5030058;28;20037;-59
2022/10/25 09:40:05;;;;;;;15.00;8.88;;;;;;;;;;4987439;28;20054;-59
2022/10/25 09:42:37;;;;;;;12.10;6.40;;;;;;;;;;5052463;28;20396;-59
2022/10/25 09:45:15;;;;;;;10.98;7.65;;;;;;;;;;5037054;28;20025;-59
2022/10/25 09:47:50;;;;;;;12.57;8.00;;;;;;;;;;5031527;28;20034;-59
2022/10/25 09:50:20;;;;;;;11.73;7.10;;;;;;;;;;5033622;28;20020;-59
2022/10/25 09:52:48;;;;;;;15.07;7.40;;;;;;;;;;5031738;28;20033;-58
2022/10/25 09:55:26;;;;;;;9.05;6.95;;;;;;;;;;5033505;28;20028;-58
2022/10/25 09:57:51;;;;;;;8.48;7.57;;;;;;;;;;5032329;28;20029;-59
2022/10/25 10:00:16;;;;;;;10.87;7.30;;;;;;;;;;5033257;28;20028;-59
2022/10/25 10:02:41;;;;;;;9.73;8.73;;;;;;;;;;5032086;28;20408;-58
2022/10/25 10:05:17;;;;;;;14.40;8.57;;;;;;;;;;5033673;28;20469;-59
2022/10/25 10:07:43;;;;;;;8.35;7.13;;;;;;;;;;5031555;28;20033;-59
2022/10/25 10:10:11;;;;;;;13.50;7.60;;;;;;;;;;5033184;28;20479;-59
2022/10/25 10:12:49;;;;;;;14.52;9.15;;;;;;;;;;5032037;28;20419;-59
2022/10/25 10:15:19;;;;;;;11.45;8.68;;;;;;;;;;5033111;28;20021;-59
2022/10/25 10:17:44;;;;;;;13.77;10.90;;;;;;;;;;5031823;28;20151;-59
2022/10/25 10:20:09;;;;;;;17.02;10.30;;;;;;;;;;5033517;28;20554;-59
2022/10/25 10:22:36;;;;;;;14.73;8.27;;;;;;;;;;5030370;28;20041;-59
2022/10/25 10:25:01;;;;;;;21.95;9.85;;;;;;;;;;5031986;28;20388;-59
2022/10/25 10:27:27;;;;;;;14.52;8.90;;;;;;;;;;5031279;28;20048;-59
2022/10/25 10:29:59;;;;;;;15.05;8.13;;;;;;;;;;5032228;28;20025;-59
2022/10/25 10:32:26;;;;;;;9.27;7.50;;;;;;;;;;5031391;28;20038;-59
2022/10/25 10:34:56;;;;;;;14.60;7.65;;;;;;;;;;5031666;28;20014;-58
2022/10/25 10:37:21;;;;;;;21.02;8.82;;;;;;;;;;5028139;28;20100;-59
2022/10/25 10:39:59;;;;;;;9.80;7.72;;;;;;;;;;5030834;28;20533;-59
2022/10/25 10:42:34;;;;;;;14.68;7.65;;;;;;;;;;5030570;28;20048;-57
2022/10/25 10:45:08;;;;;;;12.18;7.72;;;;;;;;;;5031004;28;20065;-59
2022/10/25 10:47:48;;;;;;;14.93;10.23;;;;;;;;;;5029722;28;20034;-59
2022/10/25 10:50:19;;;;;;;14.10;7.93;;;;;;;;;;5026456;28;20025;-59
2022/10/25 10:52:45;;;;;;;20.75;6.78;;;;;;;;;;5029290;28;20045;-58
2022/10/25 10:55:28;;;;;;;14.27;8.45;;;;;;;;;;5031835;28;20373;-59
2022/10/25 10:57:55;;;;;;;17.38;7.00;;;;;;;;;;5029828;28;20030;-59
2022/10/25 11:00:26;;;;;;;13.32;8.63;;;;;;;;;;5030621;28;20493;-59
2022/10/25 11:02:51;;;;;;;13.85;8.15;;;;;;;;;;5030618;28;20038;-59
2022/10/25 11:05:22;;;;;;;14.48;8.98;;;;;;;;;;5031350;28;20148;-59
2022/10/25 11:07:55;;;;;;;9.75;8.27;;;;;;;;;;5028386;28;20125;-58
2022/10/25 11:10:22;;;;;;;13.55;7.50;;;;;;;;;;5030143;28;20049;-59
2022/10/25 11:13:06;;;;;;;14.93;7.45;;;;;;;;;;5029915;28;20114;-59
2022/10/25 11:15:43;;;;;;;14.60;7.72;;;;;;;;;;5031385;28;20025;-59
2022/10/25 11:18:09;;;;;;;12.27;6.70;;;;;;;;;;5029606;28;20508;-59
2022/10/25 11:20:46;;;;;;;9.20;6.68;;;;;;;;;;5031104;28;20030;-59
2022/10/25 11:23:20;;;;;;;10.13;6.95;;;;;;;;;;5030493;28;20030;-59
2022/10/25 11:26:03;;;;;;;12.35;7.65;;;;;;;;;;5031380;28;20039;-58
2022/10/25 11:28:47;;;;;;;8.88;6.22;;;;;;;;;;5029405;28;20055;-59
2022/10/25 11:31:19;;;;;;;10.00;6.13;;;;;;;;;;5011879;28;20029;-59
2022/10/25 11:34:01;;;;;;;13.85;8.27;;;;;;;;;;5010276;28;20042;-59
2022/10/25 11:36:29;;;;;;;13.20;5.43;;;;;;;;;;5028643;28;20519;-59
2022/10/25 11:38:54;;;;;;;11.70;6.78;;;;;;;;;;5031489;28;20096;-59
2022/10/25 11:41:28;;;;;;;11.77;7.13;;;;;;;;;;5030148;28;20112;-58
2022/10/25 11:44:05;;;;;;;10.55;4.68;;;;;;;;;;5031471;28;20428;-59
2022/10/25 11:46:42;;;;;;;17.08;4.57;;;;;;;;;;5029308;28;20105;-58
2022/10/25 11:49:07;;;;;;;11.80;5.63;;;;;;;;;;5029748;28;20030;-59
2022/10/25 11:51:38;;;;;;;16.25;6.13;;;;;;;;;;5029415;28;20445;-59
2022/10/25 11:54:06;;;;;;;13.50;4.88;;;;;;;;;;5030655;28;20032;-59
2022/10/25 11:56:43;;;;;;;13.70;5.30;;;;;;;;;;5028900;28;20032;-59
2022/10/25 11:59:18;;;;;;;13.35;4.82;;;;;;;;;;5030641;28;20116;-59
2022/10/25 12:02:02;;;;;;;10.85;5.22;;;;;;;;;;5028490;28;20124;-59
2022/10/25 12:04:33;;;;;;;10.13;4.28;;;;;;;;;;5023302;28;20025;-58
2022/10/25 12:07:04;;;;;;;13.77;5.82;;;;;;;;;;5029249;28;20044;-59
2022/10/25 12:09:55;;;;;;;8.93;4.32;;;;;;;;;;5030853;28;20032;-59
2022/10/25 12:12:22;;;;;;;10.27;5.70;;;;;;;;;;5028966;28;20026;-59
2022/10/25 12:14:49;;;;;;;5.77;4.03;;;;;;;;;;5030278;28;20032;-59
2022/10/25 12:17:17;;;;;;;8.35;3.55;;;;;;;;;;5028966;28;20459;-59
2022/10/25 12:19:44;;;;;;;8.55;3.78;;;;;;;;;;5028659;28;20028;-59
2022/10/25 12:22:17;;;;;;;14.57;5.63;;;;;;;;;;5048183;28;20182;-60
2022/10/25 12:24:45;;;;;;;5.15;4.18;;;;;;;;;;5048773;28;20549;-59
2022/10/25 12:27:12;;;;;;;8.20;4.15;;;;;;;;;;5028228;28;20038;-59
2022/10/25 12:29:40;;;;;;;7.50;4.80;;;;;;;;;;5030116;28;20076;-60
2022/10/25 12:32:11;;;;;;;8.30;5.85;;;;;;;;;;5028826;28;20550;-59
2022/10/25 12:34:52;;;;;;;10.50;4.72;;;;;;;;;;5029552;28;20077;-59
2022/10/25 12:37:35;;;;;;;12.93;3.95;;;;;;;;;;5028842;28;20076;-60
2022/10/25 12:40:00;;;;;;;8.90;4.00;;;;;;;;;;5030482;28;20384;-60
2022/10/25 12:42:32;;;;;;;11.40;3.47;;;;;;;;;;5028571;28;20037;-59
2022/10/25 12:45:16;;;;;;;9.10;4.25;;;;;;;;;;5030349;28;20031;-59
2022/10/25 12:48:00;;;;;;;11.70;4.03;;;;;;;;;;5009789;28;20053;-60
2022/10/25 12:50:37;;;;;;;12.35;3.40;;;;;;;;;;5027857;28;20060;-60
2022/10/25 12:53:05;;;;;;;9.93;3.45;;;;;;;;;;5028644;28;20111;-59
2022/10/25 12:55:41;;;;;;;10.10;4.63;;;;;;;;;;5030201;28;20151;-60
2022/10/25 12:58:12;;;;;;;12.10;4.00;;;;;;;;;;5028706;28;20408;-60
2022/10/25 13:00:42;;;;;;;11.50;4.07;;;;;;;;;;5030224;28;20022;-59
2022/10/25 13:03:36;;;;;;;7.10;3.55;;;;;;;;;;5028776;28;20034;-60
2022/10/25 13:06:14;;;;;;;8.20;3.33;;;;;;;;;;5029772;28;20029;-60
2022/10/25 13:08:39;;;;;;;8.98;3.25;;;;;;;;;;5027993;28;20030;-60
2022/10/25 13:11:05;;;;;;;7.03;2.75;;;;;;;;;;5030355;28;20018;-59
2022/10/25 13:13:40;;;;;;;8.43;2.83;;;;;;;;;;5014928;28;20081;-59
2022/10/25 13:16:07;;;;;;;11.82;3.45;;;;;;;;;;5032748;28;20069;-60
2022/10/25 13:18:32;;;;;;;12.38;4.38;;;;;;;;;;5030119;28;20449;-60
2022/10/25 13:20:58;;;;;;;18.25;4.90;;;;;;;;;;5034009;28;20442;-60
2022/10/25 13:23:41;;;;;;;15.88;5.25;;;;;;;;;;5032333;28;20057;-60
2022/10/25 13:26:14;;;;;;;6.28;2.50;;;;;;;;;;5033541;28;20037;-60
2022/10/25 13:28:43;;;;;;;12.45;3.85;;;;;;;;;;5031944;28;20568;-60
2022/10/25 13:31:27;;;;;;;5.68;3.15;;;;;;;;;;5033378;28;20022;-60
2022/10/25 13:34:10;;;;;;;10.00;4.30;;;;;;;;;;5031825;28;20116;-60
2022/10/25 13:37:05;;;;;;;5.78;2.67;;;;;;;;;;5030576;28;20060;-60
2022/10/25 13:39:31;;;;;;;8.52;3.58;;;;;;;;;;5029272;28;20051;-60
2022/10/25 13:42:17;;;;;;;13.77;3.63;;;;;;;;;;5030940;28;20038;-60
2022/10/25 13:44:52;;;;;;;6.65;3.10;;;;;;;;;;5017507;28;20180;-60
2022/10/25 13:47:43;;;;;;;10.98;4.03;;;;;;;;;;5031988;28;20460;-60
2022/10/25 13:50:37;;;;;;;11.10;3.88;;;;;;;;;;5019976;28;20037;-60
2022/10/25 13:53:21;;;;;;;7.65;3.40;;;;;;;;;;5008104;28;20037;-60
2022/10/25 13:55:54;;;;;;;4.78;2.42;;;;;;;;;;5031863;28;20029;-60
2022/10/25 13:58:28;;;;;;;9.77;3.20;;;;;;;;;;5019883;28;20443;-60
2022/10/25 14:00:54;;;;;;;7.70;2.80;;;;;;;;;;5033292;28;20032;-59
2022/10/25 14:03:19;;;;;;;10.65;3.20;;;;;;;;;;5030217;28;20030;-59
2022/10/25 14:05:53;;;;;;;14.00;4.00;;;;;;;;;;5032215;28;20025;-60
2022/10/25 14:08:24;;;;;;;5.80;2.88;;;;;;;;;;5031048;28;20483;-59
2022/10/25 14:10:49;;;;;;;16.52;4.20;;;;;;;;;;5026241;28;20026;-59
2022/10/25 14:13:20;;;;;;;9.82;3.40;;;;;;;;;;5025942;28;20037;-59
2022/10/25 14:15:51;;;;;;;15.00;4.78;;;;;;;;;;5032192;28;20032;-59
2022/10/25 14:18:19;;;;;;;3.25;2.55;;;;;;;;;;5031092;28;20030;-59
2022/10/25 14:20:45;;;;;;;8.38;3.85;;;;;;;;;;5024366;28;20034;-59
2022/10/25 14:23:13;;;;;;;6.00;2.58;;;;;;;;;;5027987;28;20040;-59
2022/10/25 14:25:39;;;;;;;6.40;2.30;;;;;;;;;;5032226;28;20021;-59
2022/10/25 14:28:16;;;;;;;15.65;3.53;;;;;;;;;;5031229;28;20515;-60
2022/10/25 14:30:46;;;;;;;11.40;3.95;;;;;;;;;;5032787;28;20381;-59
2022/10/25 14:33:20;;;;;;;5.13;2.47;;;;;;;;;;5030755;28;20046;-59
2022/10/25 14:35:46;;;;;;;8.10;2.58;;;;;;;;;;5033733;28;20041;-59
2022/10/25 14:38:16;;;;;;;9.15;3.80;;;;;;;;;;5030805;28;20038;-59